Alba, Michigan
Current Conditions -  °F | °C
As of 1:18 AM on Saturday 25 Oct 2014 (Local Time) from KACB Reporting Station
Scattered Clouds Scattered Clouds  
Wind Chill: 46°   Ceiling: Unl
Heat Index: 47°   Visibility: 10mi
Dew Point: 46°   Wind: 5mph
Humidity: 93%   Direction: 200°SSW
Pressure: 29.83"   Gusts: NA
Location:  44.97°N, 84.97°W
Report Text: KACB 250518Z AUTO 20004KT 10SM SCT065 09/08 A2983 RMK AO2 T00860075
Loading
Personal Weather Stations






























Interactive Weather Map
Tropical Storm Tracking
New forecast layout! Learn more

10-Day Weather Forecast

Advertisements
Track Severe Weather on mobile